sensor_id;sensor_type;location;lat;lon;timestamp;P1;durP1;ratioP1;P2;durP2;ratioP2
19579;SDS011;9936;51.040;13.918;2023-02-21T00:01:45;5.63;;;3.50;;
19579;SDS011;9936;51.040;13.918;2023-02-21T00:05:50;7.53;;;3.20;;
19579;SDS011;9936;51.040;13.918;2023-02-21T00:09:54;5.70;;;3.40;;
19579;SDS011;9936;51.040;13.918;2023-02-21T00:18:15;6.73;;;3.63;;
19579;SDS011;9936;51.040;13.918;2023-02-21T00:22:19;7.07;;;3.70;;
19579;SDS011;9936;51.040;13.918;2023-02-21T00:26:23;7.07;;;3.90;;
19579;SDS011;9936;51.040;13.918;2023-02-21T00:30:27;3.63;;;2.33;;
19579;SDS011;9936;51.040;13.918;2023-02-21T00:34:31;7.87;;;3.90;;
19579;SDS011;9936;51.040;13.918;2023-02-21T00:38:36;5.93;;;3.40;;
19579;SDS011;9936;51.040;13.918;2023-02-21T00:42:40;6.97;;;3.70;;
19579;SDS011;9936;51.040;13.918;2023-02-21T00:46:44;8.97;;;3.40;;
19579;SDS011;9936;51.040;13.918;2023-02-21T00:50:48;4.93;;;3.20;;
19579;SDS011;9936;51.040;13.918;2023-02-21T00:54:52;7.13;;;3.13;;
19579;SDS011;9936;51.040;13.918;2023-02-21T00:58:56;7.87;;;3.10;;
19579;SDS011;9936;51.040;13.918;2023-02-21T01:03:01;5.70;;;3.33;;
19579;SDS011;9936;51.040;13.918;2023-02-21T01:07:05;5.77;;;3.57;;
19579;SDS011;9936;51.040;13.918;2023-02-21T01:11:16;5.00;;;3.23;;
19579;SDS011;9936;51.040;13.918;2023-02-21T01:15:22;4.50;;;3.00;;
19579;SDS011;9936;51.040;13.918;2023-02-21T01:23:54;4.10;;;2.90;;
19579;SDS011;9936;51.040;13.918;2023-02-21T01:27:58;4.97;;;3.30;;
19579;SDS011;9936;51.040;13.918;2023-02-21T01:32:03;5.57;;;3.30;;
19579;SDS011;9936;51.040;13.918;2023-02-21T01:36:07;4.73;;;2.93;;
19579;SDS011;9936;51.040;13.918;2023-02-21T01:40:22;4.10;;;2.90;;
19579;SDS011;9936;51.040;13.918;2023-02-21T01:44:35;4.27;;;2.90;;
19579;SDS011;9936;51.040;13.918;2023-02-21T01:48:44;4.13;;;2.60;;
19579;SDS011;9936;51.040;13.918;2023-02-21T01:52:50;4.87;;;2.87;;
19579;SDS011;9936;51.040;13.918;2023-02-21T01:56:55;4.63;;;3.03;;
19579;SDS011;9936;51.040;13.918;2023-02-21T02:01:01;5.57;;;3.07;;
19579;SDS011;9936;51.040;13.918;2023-02-21T02:05:05;3.97;;;2.70;;
19579;SDS011;9936;51.040;13.918;2023-02-21T02:09:16;4.50;;;2.47;;
19579;SDS011;9936;51.040;13.918;2023-02-21T02:13:32;5.60;;;3.30;;
19579;SDS011;9936;51.040;13.918;2023-02-21T02:25:55;4.87;;;3.13;;
19579;SDS011;9936;51.040;13.918;2023-02-21T02:30:02;3.80;;;2.90;;
19579;SDS011;9936;51.040;13.918;2023-02-21T02:42:10;5.63;;;3.33;;
19579;SDS011;9936;51.040;13.918;2023-02-21T02:46:14;4.10;;;2.87;;
19579;SDS011;9936;51.040;13.918;2023-02-21T02:50:05;6.10;;;2.87;;
19579;SDS011;9936;51.040;13.918;2023-02-21T02:53:53;5.63;;;2.97;;
19579;SDS011;9936;51.040;13.918;2023-02-21T02:57:39;4.67;;;3.27;;
19579;SDS011;9936;51.040;13.918;2023-02-21T03:01:34;4.37;;;3.00;;
19579;SDS011;9936;51.040;13.918;2023-02-21T03:17:07;3.83;;;2.70;;
19579;SDS011;9936;51.040;13.918;2023-02-21T03:20:56;5.23;;;3.20;;
19579;SDS011;9936;51.040;13.918;2023-02-21T03:24:45;4.50;;;2.80;;
19579;SDS011;9936;51.040;13.918;2023-02-21T03:28:33;4.33;;;2.93;;
19579;SDS011;9936;51.040;13.918;2023-02-21T03:36:19;4.53;;;3.33;;
19579;SDS011;9936;51.040;13.918;2023-02-21T03:40:06;8.00;;;3.63;;
19579;SDS011;9936;51.040;13.918;2023-02-21T03:43:55;4.63;;;3.10;;
19579;SDS011;9936;51.040;13.918;2023-02-21T03:47:40;4.87;;;3.10;;
19579;SDS011;9936;51.040;13.918;2023-02-21T03:51:26;5.30;;;3.43;;
19579;SDS011;9936;51.040;13.918;2023-02-21T03:55:11;7.97;;;3.43;;
19579;SDS011;9936;51.040;13.918;2023-02-21T03:58:57;5.60;;;3.60;;
19579;SDS011;9936;51.040;13.918;2023-02-21T04:02:43;6.43;;;3.50;;
19579;SDS011;9936;51.040;13.918;2023-02-21T04:06:28;5.83;;;3.83;;
19579;SDS011;9936;51.040;13.918;2023-02-21T04:10:14;8.80;;;4.00;;
19579;SDS011;9936;51.040;13.918;2023-02-21T04:14:00;7.60;;;3.93;;
19579;SDS011;9936;51.040;13.918;2023-02-21T04:17:45;7.27;;;4.17;;
19579;SDS011;9936;51.040;13.918;2023-02-21T04:21:31;4.97;;;3.30;;
19579;SDS011;9936;51.040;13.918;2023-02-21T04:25:16;6.83;;;4.00;;
19579;SDS011;9936;51.040;13.918;2023-02-21T04:29:02;6.10;;;3.70;;
19579;SDS011;9936;51.040;13.918;2023-02-21T04:32:48;5.43;;;3.50;;
19579;SDS011;9936;51.040;13.918;2023-02-21T04:36:34;7.37;;;4.10;;
19579;SDS011;9936;51.040;13.918;2023-02-21T04:40:22;6.93;;;4.10;;
19579;SDS011;9936;51.040;13.918;2023-02-21T04:44:07;8.27;;;4.20;;
19579;SDS011;9936;51.040;13.918;2023-02-21T04:47:54;8.20;;;4.63;;
19579;SDS011;9936;51.040;13.918;2023-02-21T04:51:39;6.77;;;4.33;;
19579;SDS011;9936;51.040;13.918;2023-02-21T04:55:25;7.27;;;4.90;;
19579;SDS011;9936;51.040;13.918;2023-02-21T04:59:12;9.23;;;5.03;;
19579;SDS011;9936;51.040;13.918;2023-02-21T05:02:57;8.60;;;5.27;;
19579;SDS011;9936;51.040;13.918;2023-02-21T05:06:43;8.23;;;5.00;;
19579;SDS011;9936;51.040;13.918;2023-02-21T05:10:29;7.97;;;5.37;;
19579;SDS011;9936;51.040;13.918;2023-02-21T05:14:14;12.40;;;6.50;;
19579;SDS011;9936;51.040;13.918;2023-02-21T05:18:02;9.93;;;5.73;;
19579;SDS011;9936;51.040;13.918;2023-02-21T05:21:47;10.53;;;5.80;;
19579;SDS011;9936;51.040;13.918;2023-02-21T05:25:34;10.47;;;5.60;;
19579;SDS011;9936;51.040;13.918;2023-02-21T05:29:20;11.53;;;6.17;;
19579;SDS011;9936;51.040;13.918;2023-02-21T05:33:06;9.47;;;5.83;;
19579;SDS011;9936;51.040;13.918;2023-02-21T05:36:51;10.73;;;5.87;;
19579;SDS011;9936;51.040;13.918;2023-02-21T05:40:37;8.87;;;5.77;;
19579;SDS011;9936;51.040;13.918;2023-02-21T05:44:22;10.03;;;6.40;;
19579;SDS011;9936;51.040;13.918;2023-02-21T05:48:08;10.97;;;5.57;;
19579;SDS011;9936;51.040;13.918;2023-02-21T05:51:54;9.10;;;5.67;;
19579;SDS011;9936;51.040;13.918;2023-02-21T05:55:40;9.37;;;5.87;;
19579;SDS011;9936;51.040;13.918;2023-02-21T05:59:25;9.43;;;5.77;;
19579;SDS011;9936;51.040;13.918;2023-02-21T06:03:11;9.73;;;6.10;;
19579;SDS011;9936;51.040;13.918;2023-02-21T06:06:57;12.03;;;6.23;;
19579;SDS011;9936;51.040;13.918;2023-02-21T06:10:42;12.40;;;6.30;;
19579;SDS011;9936;51.040;13.918;2023-02-21T06:14:28;10.23;;;6.03;;
19579;SDS011;9936;51.040;13.918;2023-02-21T06:18:14;14.63;;;6.40;;
19579;SDS011;9936;51.040;13.918;2023-02-21T06:22:00;10.97;;;6.90;;
19579;SDS011;9936;51.040;13.918;2023-02-21T06:25:45;11.63;;;6.23;;
19579;SDS011;9936;51.040;13.918;2023-02-21T06:29:31;14.13;;;7.13;;
19579;SDS011;9936;51.040;13.918;2023-02-21T06:33:17;16.53;;;7.53;;
19579;SDS011;9936;51.040;13.918;2023-02-21T06:37:03;11.77;;;6.57;;
19579;SDS011;9936;51.040;13.918;2023-02-21T06:40:48;10.47;;;6.67;;
19579;SDS011;9936;51.040;13.918;2023-02-21T06:44:34;13.53;;;7.73;;
19579;SDS011;9936;51.040;13.918;2023-02-21T06:48:19;11.37;;;6.93;;
19579;SDS011;9936;51.040;13.918;2023-02-21T06:52:05;11.40;;;7.03;;
19579;SDS011;9936;51.040;13.918;2023-02-21T06:55:58;14.63;;;7.40;;
19579;SDS011;9936;51.040;13.918;2023-02-21T06:59:44;13.50;;;7.17;;
19579;SDS011;9936;51.040;13.918;2023-02-21T07:03:29;13.97;;;6.97;;
19579;SDS011;9936;51.040;13.918;2023-02-21T07:07:15;12.30;;;7.00;;
19579;SDS011;9936;51.040;13.918;2023-02-21T07:11:01;14.87;;;7.47;;
19579;SDS011;9936;51.040;13.918;2023-02-21T07:14:47;13.37;;;7.60;;
19579;SDS011;9936;51.040;13.918;2023-02-21T07:18:36;12.73;;;7.23;;
19579;SDS011;9936;51.040;13.918;2023-02-21T07:22:21;14.47;;;7.90;;
19579;SDS011;9936;51.040;13.918;2023-02-21T07:26:10;14.03;;;7.57;;
19579;SDS011;9936;51.040;13.918;2023-02-21T07:29:56;14.60;;;8.27;;
19579;SDS011;9936;51.040;13.918;2023-02-21T07:33:42;13.07;;;7.80;;
19579;SDS011;9936;51.040;13.918;2023-02-21T07:37:27;14.07;;;7.73;;
19579;SDS011;9936;51.040;13.918;2023-02-21T07:41:14;15.30;;;8.07;;
19579;SDS011;9936;51.040;13.918;2023-02-21T07:45:00;12.87;;;7.37;;
19579;SDS011;9936;51.040;13.918;2023-02-21T07:48:46;13.83;;;7.47;;
19579;SDS011;9936;51.040;13.918;2023-02-21T07:52:35;16.37;;;8.80;;
19579;SDS011;9936;51.040;13.918;2023-02-21T07:56:21;14.50;;;8.63;;
19579;SDS011;9936;51.040;13.918;2023-02-21T08:00:07;15.40;;;8.37;;
19579;SDS011;9936;51.040;13.918;2023-02-21T08:03:55;14.93;;;8.50;;
19579;SDS011;9936;51.040;13.918;2023-02-21T08:07:40;15.20;;;8.23;;
19579;SDS011;9936;51.040;13.918;2023-02-21T08:11:26;17.37;;;8.83;;
19579;SDS011;9936;51.040;13.918;2023-02-21T08:15:12;16.57;;;9.10;;
19579;SDS011;9936;51.040;13.918;2023-02-21T08:18:57;14.37;;;8.53;;
19579;SDS011;9936;51.040;13.918;2023-02-21T08:22:43;15.77;;;9.67;;
19579;SDS011;9936;51.040;13.918;2023-02-21T08:26:29;17.27;;;9.33;;
19579;SDS011;9936;51.040;13.918;2023-02-21T08:30:15;18.47;;;9.87;;
19579;SDS011;9936;51.040;13.918;2023-02-21T08:34:01;15.70;;;9.27;;
19579;SDS011;9936;51.040;13.918;2023-02-21T08:37:47;19.43;;;10.20;;
19579;SDS011;9936;51.040;13.918;2023-02-21T08:45:25;17.10;;;9.03;;
19579;SDS011;9936;51.040;13.918;2023-02-21T08:49:12;15.97;;;9.57;;
19579;SDS011;9936;51.040;13.918;2023-02-21T08:52:58;28.30;;;10.20;;
19579;SDS011;9936;51.040;13.918;2023-02-21T08:56:43;18.10;;;9.70;;
19579;SDS011;9936;51.040;13.918;2023-02-21T09:00:29;16.77;;;9.40;;
19579;SDS011;9936;51.040;13.918;2023-02-21T09:04:15;15.70;;;8.83;;
19579;SDS011;9936;51.040;13.918;2023-02-21T09:08:00;17.23;;;9.37;;
19579;SDS011;9936;51.040;13.918;2023-02-21T09:11:46;17.03;;;8.77;;
19579;SDS011;9936;51.040;13.918;2023-02-21T09:15:33;15.47;;;8.43;;
19579;SDS011;9936;51.040;13.918;2023-02-21T09:19:19;15.90;;;8.60;;
19579;SDS011;9936;51.040;13.918;2023-02-21T09:23:05;16.87;;;8.67;;
19579;SDS011;9936;51.040;13.918;2023-02-21T09:26:52;14.40;;;8.33;;
19579;SDS011;9936;51.040;13.918;2023-02-21T09:30:42;14.67;;;8.53;;
19579;SDS011;9936;51.040;13.918;2023-02-21T09:34:28;15.20;;;7.23;;
19579;SDS011;9936;51.040;13.918;2023-02-21T09:38:14;15.63;;;8.27;;
19579;SDS011;9936;51.040;13.918;2023-02-21T09:42:00;14.53;;;7.20;;
19579;SDS011;9936;51.040;13.918;2023-02-21T09:45:45;14.47;;;8.13;;
19579;SDS011;9936;51.040;13.918;2023-02-21T09:49:34;13.17;;;7.53;;
19579;SDS011;9936;51.040;13.918;2023-02-21T09:53:28;14.60;;;9.60;;
19579;SDS011;9936;51.040;13.918;2023-02-21T09:57:16;14.77;;;7.90;;
19579;SDS011;9936;51.040;13.918;2023-02-21T10:01:03;16.17;;;8.87;;
19579;SDS011;9936;51.040;13.918;2023-02-21T10:13:07;16.63;;;9.13;;
19579;SDS011;9936;51.040;13.918;2023-02-21T10:16:59;15.07;;;8.63;;
19579;SDS011;9936;51.040;13.918;2023-02-21T10:20:57;13.90;;;8.43;;
19579;SDS011;9936;51.040;13.918;2023-02-21T10:24:47;14.43;;;7.93;;
19579;SDS011;9936;51.040;13.918;2023-02-21T10:28:34;15.00;;;8.30;;
19579;SDS011;9936;51.040;13.918;2023-02-21T10:32:20;11.43;;;7.80;;
19579;SDS011;9936;51.040;13.918;2023-02-21T10:36:11;17.03;;;8.07;;
19579;SDS011;9936;51.040;13.918;2023-02-21T10:40:05;12.87;;;7.50;;
19579;SDS011;9936;51.040;13.918;2023-02-21T10:44:19;13.97;;;7.60;;
19579;SDS011;9936;51.040;13.918;2023-02-21T10:48:11;15.20;;;9.70;;
19579;SDS011;9936;51.040;13.918;2023-02-21T10:52:05;14.47;;;7.37;;
19579;SDS011;9936;51.040;13.918;2023-02-21T10:59:59;13.60;;;7.07;;
19579;SDS011;9936;51.040;13.918;2023-02-21T11:03:55;15.40;;;8.53;;
19579;SDS011;9936;51.040;13.918;2023-02-21T11:08:05;12.00;;;7.30;;
19579;SDS011;9936;51.040;13.918;2023-02-21T11:16:22;13.57;;;7.20;;
19579;SDS011;9936;51.040;13.918;2023-02-21T11:20:16;12.03;;;7.27;;
19579;SDS011;9936;51.040;13.918;2023-02-21T11:24:08;17.53;;;10.67;;
19579;SDS011;9936;51.040;13.918;2023-02-21T11:28:03;15.63;;;7.63;;
19579;SDS011;9936;51.040;13.918;2023-02-21T11:31:51;13.87;;;7.77;;
19579;SDS011;9936;51.040;13.918;2023-02-21T11:35:48;12.00;;;7.70;;
19579;SDS011;9936;51.040;13.918;2023-02-21T11:39:35;13.23;;;7.33;;
19579;SDS011;9936;51.040;13.918;2023-02-21T11:43:25;10.47;;;6.40;;
19579;SDS011;9936;51.040;13.918;2023-02-21T11:47:14;11.27;;;7.27;;
19579;SDS011;9936;51.040;13.918;2023-02-21T11:51:07;12.73;;;7.30;;
19579;SDS011;9936;51.040;13.918;2023-02-21T11:55:03;14.17;;;7.10;;
19579;SDS011;9936;51.040;13.918;2023-02-21T12:03:34;11.43;;;7.37;;
19579;SDS011;9936;51.040;13.918;2023-02-21T12:28:36;12.30;;;7.00;;
19579;SDS011;9936;51.040;13.918;2023-02-21T12:36:47;12.80;;;7.27;;
19579;SDS011;9936;51.040;13.918;2023-02-21T12:41:17;14.57;;;7.97;;
19579;SDS011;9936;51.040;13.918;2023-02-21T13:06:54;13.43;;;6.63;;
19579;SDS011;9936;51.040;13.918;2023-02-21T13:10:59;9.67;;;6.67;;
19579;SDS011;9936;51.040;13.918;2023-02-21T13:14:54;14.03;;;6.80;;
19579;SDS011;9936;51.040;13.918;2023-02-21T13:18:46;10.57;;;6.30;;
19579;SDS011;9936;51.040;13.918;2023-02-21T13:35:31;12.67;;;6.47;;
19579;SDS011;9936;51.040;13.918;2023-02-21T13:39:26;11.83;;;6.47;;
19579;SDS011;9936;51.040;13.918;2023-02-21T13:51:04;13.87;;;6.67;;
19579;SDS011;9936;51.040;13.918;2023-02-21T13:59:28;15.43;;;9.47;;
19579;SDS011;9936;51.040;13.918;2023-02-21T14:07:03;13.57;;;7.50;;
19579;SDS011;9936;51.040;13.918;2023-02-21T14:10:54;11.03;;;6.93;;
19579;SDS011;9936;51.040;13.918;2023-02-21T14:31:02;12.97;;;6.77;;
19579;SDS011;9936;51.040;13.918;2023-02-21T14:38:40;13.73;;;8.07;;
19579;SDS011;9936;51.040;13.918;2023-02-21T15:04:09;13.80;;;8.23;;
19579;SDS011;9936;51.040;13.918;2023-02-21T15:07:58;11.57;;;7.07;;
19579;SDS011;9936;51.040;13.918;2023-02-21T15:11:49;17.47;;;8.87;;
19579;SDS011;9936;51.040;13.918;2023-02-21T15:15:40;14.03;;;8.63;;
19579;SDS011;9936;51.040;13.918;2023-02-21T15:19:37;11.43;;;7.27;;
19579;SDS011;9936;51.040;13.918;2023-02-21T15:23:23;12.20;;;7.27;;
19579;SDS011;9936;51.040;13.918;2023-02-21T15:27:13;12.63;;;6.73;;
19579;SDS011;9936;51.040;13.918;2023-02-21T15:31:00;11.00;;;6.57;;
19579;SDS011;9936;51.040;13.918;2023-02-21T15:34:52;11.63;;;6.93;;
19579;SDS011;9936;51.040;13.918;2023-02-21T15:38:44;11.97;;;7.03;;
19579;SDS011;9936;51.040;13.918;2023-02-21T15:42:50;14.13;;;7.47;;
19579;SDS011;9936;51.040;13.918;2023-02-21T15:46:51;11.53;;;6.50;;
19579;SDS011;9936;51.040;13.918;2023-02-21T15:50:43;9.57;;;6.33;;
19579;SDS011;9936;51.040;13.918;2023-02-21T15:54:34;12.83;;;6.53;;
19579;SDS011;9936;51.040;13.918;2023-02-21T15:58:23;12.67;;;5.70;;
19579;SDS011;9936;51.040;13.918;2023-02-21T16:14:13;11.20;;;6.63;;
19579;SDS011;9936;51.040;13.918;2023-02-21T16:18:04;18.43;;;7.03;;
19579;SDS011;9936;51.040;13.918;2023-02-21T16:22:08;10.30;;;6.43;;
19579;SDS011;9936;51.040;13.918;2023-02-21T16:30:00;11.10;;;6.60;;
19579;SDS011;9936;51.040;13.918;2023-02-21T16:33:46;12.07;;;6.63;;
19579;SDS011;9936;51.040;13.918;2023-02-21T16:37:34;11.67;;;6.40;;
19579;SDS011;9936;51.040;13.918;2023-02-21T16:41:20;12.00;;;6.13;;
19579;SDS011;9936;51.040;13.918;2023-02-21T16:45:06;10.67;;;5.67;;
19579;SDS011;9936;51.040;13.918;2023-02-21T16:48:53;8.43;;;5.20;;
19579;SDS011;9936;51.040;13.918;2023-02-21T16:52:39;11.87;;;5.33;;
19579;SDS011;9936;51.040;13.918;2023-02-21T16:56:24;9.17;;;5.43;;
19579;SDS011;9936;51.040;13.918;2023-02-21T17:00:10;11.17;;;6.20;;
19579;SDS011;9936;51.040;13.918;2023-02-21T17:03:56;10.43;;;6.83;;
19579;SDS011;9936;51.040;13.918;2023-02-21T17:07:42;10.37;;;6.10;;
19579;SDS011;9936;51.040;13.918;2023-02-21T17:11:28;16.87;;;10.53;;
19579;SDS011;9936;51.040;13.918;2023-02-21T17:15:13;11.63;;;6.60;;
19579;SDS011;9936;51.040;13.918;2023-02-21T17:19:12;11.90;;;6.47;;
19579;SDS011;9936;51.040;13.918;2023-02-21T17:23:00;11.87;;;6.83;;
19579;SDS011;9936;51.040;13.918;2023-02-21T17:26:46;12.10;;;6.50;;
19579;SDS011;9936;51.040;13.918;2023-02-21T17:30:31;15.93;;;8.93;;
19579;SDS011;9936;51.040;13.918;2023-02-21T17:34:17;13.50;;;8.00;;
19579;SDS011;9936;51.040;13.918;2023-02-21T17:38:03;15.03;;;8.10;;
19579;SDS011;9936;51.040;13.918;2023-02-21T17:41:50;19.77;;;10.77;;
19579;SDS011;9936;51.040;13.918;2023-02-21T17:45:36;11.30;;;6.23;;
19579;SDS011;9936;51.040;13.918;2023-02-21T17:49:23;11.37;;;6.63;;
19579;SDS011;9936;51.040;13.918;2023-02-21T17:53:14;10.77;;;6.37;;
19579;SDS011;9936;51.040;13.918;2023-02-21T17:57:12;11.53;;;6.33;;
19579;SDS011;9936;51.040;13.918;2023-02-21T18:00:58;9.77;;;6.23;;
19579;SDS011;9936;51.040;13.918;2023-02-21T18:04:44;9.97;;;5.77;;
19579;SDS011;9936;51.040;13.918;2023-02-21T18:08:32;12.03;;;5.93;;
19579;SDS011;9936;51.040;13.918;2023-02-21T18:12:18;10.20;;;6.20;;
19579;SDS011;9936;51.040;13.918;2023-02-21T18:16:03;10.80;;;6.03;;
19579;SDS011;9936;51.040;13.918;2023-02-21T18:19:49;11.83;;;6.43;;
19579;SDS011;9936;51.040;13.918;2023-02-21T18:31:17;14.23;;;7.93;;
19579;SDS011;9936;51.040;13.918;2023-02-21T18:35:04;15.10;;;8.47;;
19579;SDS011;9936;51.040;13.918;2023-02-21T18:38:59;24.53;;;14.23;;
19579;SDS011;9936;51.040;13.918;2023-02-21T18:42:45;12.43;;;8.10;;
19579;SDS011;9936;51.040;13.918;2023-02-21T18:46:34;23.10;;;16.33;;
19579;SDS011;9936;51.040;13.918;2023-02-21T18:50:33;11.43;;;7.90;;
19579;SDS011;9936;51.040;13.918;2023-02-21T19:05:59;13.17;;;7.77;;
19579;SDS011;9936;51.040;13.918;2023-02-21T19:09:48;14.90;;;7.47;;
19579;SDS011;9936;51.040;13.918;2023-02-21T19:13:34;12.57;;;7.00;;
19579;SDS011;9936;51.040;13.918;2023-02-21T19:17:20;14.40;;;6.77;;
19579;SDS011;9936;51.040;13.918;2023-02-21T19:21:05;13.67;;;6.70;;
19579;SDS011;9936;51.040;13.918;2023-02-21T19:28:50;13.10;;;7.20;;
19579;SDS011;9936;51.040;13.918;2023-02-21T19:32:36;11.37;;;5.80;;
19579;SDS011;9936;51.040;13.918;2023-02-21T19:36:22;10.30;;;5.93;;
19579;SDS011;9936;51.040;13.918;2023-02-21T19:40:07;9.50;;;5.70;;
19579;SDS011;9936;51.040;13.918;2023-02-21T19:44:06;10.50;;;5.80;;
19579;SDS011;9936;51.040;13.918;2023-02-21T19:47:54;10.60;;;5.57;;
19579;SDS011;9936;51.040;13.918;2023-02-21T19:51:40;9.97;;;5.77;;
19579;SDS011;9936;51.040;13.918;2023-02-21T19:55:27;12.13;;;6.17;;
19579;SDS011;9936;51.040;13.918;2023-02-21T19:59:29;11.07;;;6.47;;
19579;SDS011;9936;51.040;13.918;2023-02-21T20:03:15;11.30;;;6.20;;
19579;SDS011;9936;51.040;13.918;2023-02-21T20:07:04;10.30;;;5.97;;
19579;SDS011;9936;51.040;13.918;2023-02-21T20:10:55;8.83;;;5.73;;
19579;SDS011;9936;51.040;13.918;2023-02-21T20:14:41;10.67;;;5.93;;
19579;SDS011;9936;51.040;13.918;2023-02-21T20:18:32;12.53;;;5.70;;
19579;SDS011;9936;51.040;13.918;2023-02-21T20:22:17;10.17;;;5.70;;
19579;SDS011;9936;51.040;13.918;2023-02-21T20:26:03;18.43;;;6.83;;
19579;SDS011;9936;51.040;13.918;2023-02-21T20:29:49;10.83;;;6.33;;
19579;SDS011;9936;51.040;13.918;2023-02-21T20:33:37;13.30;;;6.80;;
19579;SDS011;9936;51.040;13.918;2023-02-21T20:37:33;13.17;;;6.27;;
19579;SDS011;9936;51.040;13.918;2023-02-21T20:41:22;10.17;;;6.27;;
19579;SDS011;9936;51.040;13.918;2023-02-21T20:49:03;13.90;;;7.70;;
19579;SDS011;9936;51.040;13.918;2023-02-21T20:57:06;8.77;;;6.17;;
19579;SDS011;9936;51.040;13.918;2023-02-21T21:00:53;10.20;;;6.37;;
19579;SDS011;9936;51.040;13.918;2023-02-21T21:04:40;10.30;;;6.27;;
19579;SDS011;9936;51.040;13.918;2023-02-21T21:12:27;10.53;;;6.43;;
19579;SDS011;9936;51.040;13.918;2023-02-21T21:16:14;9.83;;;5.93;;
19579;SDS011;9936;51.040;13.918;2023-02-21T21:20:02;11.23;;;6.57;;
19579;SDS011;9936;51.040;13.918;2023-02-21T21:23:58;11.20;;;6.30;;
19579;SDS011;9936;51.040;13.918;2023-02-21T21:27:44;11.97;;;6.23;;
19579;SDS011;9936;51.040;13.918;2023-02-21T21:31:30;9.50;;;5.93;;
19579;SDS011;9936;51.040;13.918;2023-02-21T21:35:16;12.73;;;6.37;;
19579;SDS011;9936;51.040;13.918;2023-02-21T21:39:03;9.47;;;6.20;;
19579;SDS011;9936;51.040;13.918;2023-02-21T21:42:49;9.47;;;5.30;;
19579;SDS011;9936;51.040;13.918;2023-02-21T21:46:36;7.77;;;5.20;;
19579;SDS011;9936;51.040;13.918;2023-02-21T21:50:23;9.03;;;5.47;;
19579;SDS011;9936;51.040;13.918;2023-02-21T21:54:10;12.77;;;5.57;;
19579;SDS011;9936;51.040;13.918;2023-02-21T21:57:56;9.50;;;5.60;;
19579;SDS011;9936;51.040;13.918;2023-02-21T22:01:42;12.30;;;5.80;;
19579;SDS011;9936;51.040;13.918;2023-02-21T22:05:28;10.10;;;5.93;;
19579;SDS011;9936;51.040;13.918;2023-02-21T22:09:15;11.53;;;5.77;;
19579;SDS011;9936;51.040;13.918;2023-02-21T22:13:11;9.40;;;5.73;;
19579;SDS011;9936;51.040;13.918;2023-02-21T22:17:04;8.83;;;5.77;;
19579;SDS011;9936;51.040;13.918;2023-02-21T22:20:50;10.20;;;5.70;;
19579;SDS011;9936;51.040;13.918;2023-02-21T22:24:35;9.47;;;6.03;;
19579;SDS011;9936;51.040;13.918;2023-02-21T22:28:24;7.63;;;5.07;;
19579;SDS011;9936;51.040;13.918;2023-02-21T22:32:10;8.03;;;5.00;;
19579;SDS011;9936;51.040;13.918;2023-02-21T22:35:56;8.97;;;5.70;;
19579;SDS011;9936;51.040;13.918;2023-02-21T22:39:43;8.73;;;5.33;;
19579;SDS011;9936;51.040;13.918;2023-02-21T22:43:28;8.60;;;5.20;;
19579;SDS011;9936;51.040;13.918;2023-02-21T22:47:14;8.03;;;5.07;;
19579;SDS011;9936;51.040;13.918;2023-02-21T22:51:00;8.50;;;5.10;;
19579;SDS011;9936;51.040;13.918;2023-02-21T22:54:46;11.13;;;5.30;;
19579;SDS011;9936;51.040;13.918;2023-02-21T22:58:31;7.97;;;5.17;;
19579;SDS011;9936;51.040;13.918;2023-02-21T23:02:17;7.10;;;4.47;;
19579;SDS011;9936;51.040;13.918;2023-02-21T23:06:06;9.37;;;5.10;;
19579;SDS011;9936;51.040;13.918;2023-02-21T23:09:51;8.90;;;5.70;;
19579;SDS011;9936;51.040;13.918;2023-02-21T23:13:37;8.30;;;5.00;;
19579;SDS011;9936;51.040;13.918;2023-02-21T23:17:23;9.20;;;5.47;;
19579;SDS011;9936;51.040;13.918;2023-02-21T23:21:08;7.33;;;4.77;;
19579;SDS011;9936;51.040;13.918;2023-02-21T23:24:54;6.73;;;4.80;;
19579;SDS011;9936;51.040;13.918;2023-02-21T23:28:40;8.63;;;4.73;;
19579;SDS011;9936;51.040;13.918;2023-02-21T23:32:25;8.93;;;4.80;;
19579;SDS011;9936;51.040;13.918;2023-02-21T23:36:12;7.73;;;5.13;;
19579;SDS011;9936;51.040;13.918;2023-02-21T23:40:01;9.43;;;5.00;;
19579;SDS011;9936;51.040;13.918;2023-02-21T23:43:47;9.07;;;5.50;;
19579;SDS011;9936;51.040;13.918;2023-02-21T23:47:36;9.93;;;5.23;;
19579;SDS011;9936;51.040;13.918;2023-02-21T23:51:22;8.07;;;4.90;;
19579;SDS011;9936;51.040;13.918;2023-02-21T23:55:10;8.57;;;5.20;;
19579;SDS011;9936;51.040;13.918;2023-02-21T23:58:57;7.40;;;5.10;;
